createdAt,value
2023-02-20T00:00:58.878Z,2.50
2023-02-20T00:06:03.129Z,5.10
2023-02-20T00:11:07.750Z,2.60
2023-02-20T00:16:12.086Z,1.60
2023-02-20T00:21:17.049Z,2.20
2023-02-20T00:26:21.083Z,2.10
2023-02-20T00:31:25.549Z,2.10
2023-02-20T00:36:29.776Z,7.60
2023-02-20T00:41:33.953Z,3.10
2023-02-20T00:46:38.278Z,4.90
2023-02-20T00:51:42.376Z,8.30
2023-02-20T00:56:47.051Z,5.90
2023-02-20T01:01:51.426Z,3.30
2023-02-20T01:06:55.508Z,4.70
2023-02-20T01:11:59.634Z,1.70
2023-02-20T01:17:04.177Z,2.70
2023-02-20T01:22:09.324Z,2.00
2023-02-20T01:27:13.352Z,1.90
2023-02-20T01:32:17.511Z,3.10
2023-02-20T01:37:21.732Z,2.40
2023-02-20T01:42:30.945Z,1.70
2023-02-20T01:47:35.033Z,3.20
2023-02-20T01:52:42.953Z,2.90
2023-02-20T01:57:58.448Z,2.00
2023-02-20T02:03:10.056Z,2.10
2023-02-20T02:08:17.113Z,4.40
2023-02-20T02:13:22.082Z,3.50
2023-02-20T02:18:40.464Z,3.00
2023-02-20T02:24:32.387Z,1.80
2023-02-20T02:29:43.669Z,2.90
2023-02-20T02:34:47.706Z,4.10
2023-02-20T02:40:04.743Z,1.80
2023-02-20T02:45:23.094Z,2.70
2023-02-20T02:50:37.464Z,1.50
2023-02-20T02:55:41.710Z,2.50
2023-02-20T03:00:55.908Z,2.40
2023-02-20T03:06:14.967Z,2.90
2023-02-20T03:11:22.880Z,3.90
2023-02-20T03:16:35.668Z,1.60
2023-02-20T03:21:48.942Z,1.60
2023-02-20T03:26:56.984Z,2.30
2023-02-20T03:32:30.687Z,1.50
2023-02-20T03:37:58.651Z,1.60
2023-02-20T03:43:26.120Z,3.20
2023-02-20T03:48:42.885Z,2.00
2023-02-20T03:53:48.104Z,1.40
2023-02-20T03:59:05.641Z,3.10
2023-02-20T04:04:15.210Z,2.20
2023-02-20T04:09:27.424Z,2.10
2023-02-20T04:14:32.988Z,1.70
2023-02-20T04:19:37.641Z,1.20
2023-02-20T04:24:50.920Z,0.80
2023-02-20T04:29:55.314Z,1.80
2023-02-20T04:34:59.656Z,4.50
2023-02-20T04:40:05.047Z,7.10
2023-02-20T04:45:10.807Z,2.20
2023-02-20T04:50:28.898Z,1.70
2023-02-20T04:55:33.379Z,1.60
2023-02-20T05:00:39.796Z,1.40
2023-02-20T05:05:43.916Z,1.20
2023-02-20T05:10:48.154Z,1.80
2023-02-20T05:15:52.185Z,1.40
2023-02-20T05:21:15.346Z,2.80
2023-02-20T05:26:22.657Z,1.30
2023-02-20T05:31:26.940Z,1.60
2023-02-20T05:36:31.652Z,1.90
2023-02-20T05:41:35.776Z,1.80
2023-02-20T05:46:41.641Z,1.20
2023-02-20T05:51:45.589Z,1.90
2023-02-20T05:56:50.019Z,2.30
2023-02-20T06:01:58.584Z,2.10
2023-02-20T06:07:02.915Z,1.10
2023-02-20T06:12:07.541Z,1.10
2023-02-20T06:17:11.468Z,1.20
2023-02-20T06:22:17.923Z,1.40
2023-02-20T06:27:22.008Z,0.70
2023-02-20T06:32:26.176Z,1.20
2023-02-20T06:37:30.363Z,1.40
2023-02-20T06:42:34.319Z,2.90
2023-02-20T06:47:38.543Z,2.00
2023-02-20T06:52:42.583Z,1.20
2023-02-20T06:57:46.711Z,1.60
2023-02-20T07:02:51.252Z,4.60
2023-02-20T07:07:55.181Z,1.30
2023-02-20T07:12:59.329Z,7.60
2023-02-20T07:18:03.667Z,1.20
2023-02-20T07:23:08.015Z,5.20
2023-02-20T07:28:12.345Z,3.10
2023-02-20T07:33:20.084Z,4.80
2023-02-20T07:38:23.884Z,3.40
2023-02-20T07:43:28.123Z,2.70
2023-02-20T07:48:32.276Z,4.90
2023-02-20T07:53:36.393Z,1.50
2023-02-20T07:58:40.410Z,3.20
2023-02-20T08:03:44.755Z,4.40
2023-02-20T08:08:50.778Z,2.80
2023-02-20T08:13:57.616Z,6.10
2023-02-20T08:19:02.447Z,1.90
2023-02-20T08:24:07.423Z,14.20
2023-02-20T08:29:13.449Z,11.80
2023-02-20T08:34:17.624Z,6.20
2023-02-20T08:39:21.952Z,6.00
2023-02-20T08:44:26.027Z,9.60
2023-02-20T08:49:30.468Z,6.20
2023-02-20T08:54:34.708Z,3.90
2023-02-20T08:59:39.841Z,4.60
2023-02-20T09:04:47.280Z,1.90
2023-02-20T09:09:52.769Z,0.80
2023-02-20T09:14:57.565Z,3.20
2023-02-20T09:20:01.813Z,1.50
2023-02-20T09:25:07.188Z,4.60
2023-02-20T09:30:14.184Z,2.00
2023-02-20T09:35:23.041Z,3.00
2023-02-20T09:40:30.429Z,3.50
2023-02-20T09:45:39.172Z,2.40
2023-02-20T09:50:51.531Z,3.90
2023-02-20T09:55:57.145Z,1.20
2023-02-20T10:01:03.448Z,2.90
2023-02-20T10:06:16.672Z,2.40
2023-02-20T10:11:46.631Z,4.00
2023-02-20T10:16:54.130Z,1.20
2023-02-20T10:22:15.787Z,1.30
2023-02-20T10:27:31.373Z,6.40
2023-02-20T10:32:50.832Z,3.50
2023-02-20T10:37:58.664Z,2.50
2023-02-20T10:43:09.902Z,8.70
2023-02-20T10:48:18.438Z,2.90
2023-02-20T10:53:45.299Z,6.80
2023-02-20T10:59:05.251Z,2.20
2023-02-20T11:04:16.518Z,2.20
2023-02-20T11:09:21.383Z,3.60
2023-02-20T11:14:42.011Z,2.00
2023-02-20T11:19:51.592Z,1.90
2023-02-20T11:25:14.722Z,1.80
2023-02-20T11:30:32.345Z,1.30
2023-02-20T11:35:41.270Z,5.10
2023-02-20T11:41:05.308Z,28.40
2023-02-20T11:46:24.126Z,15.00
2023-02-20T11:51:35.538Z,15.80
2023-02-20T11:57:01.599Z,14.30
2023-02-20T12:02:18.777Z,13.50
2023-02-20T12:07:22.666Z,13.80
2023-02-20T12:12:30.623Z,19.20
2023-02-20T12:17:44.966Z,12.10
2023-02-20T12:23:06.919Z,11.70
2023-02-20T12:28:26.615Z,12.40
2023-02-20T12:34:09.200Z,14.60
2023-02-20T12:39:18.868Z,11.20
2023-02-20T12:44:41.633Z,10.50
2023-02-20T12:49:55.734Z,11.10
2023-02-20T12:55:19.298Z,10.50
2023-02-20T13:00:52.931Z,13.10
2023-02-20T13:05:57.591Z,14.30
2023-02-20T13:11:06.463Z,11.50
2023-02-20T13:16:32.813Z,11.30
2023-02-20T13:21:36.778Z,13.20
2023-02-20T13:26:40.757Z,9.60
2023-02-20T13:31:53.376Z,9.40
2023-02-20T13:36:57.520Z,9.00
2023-02-20T13:42:04.990Z,9.20
2023-02-20T13:47:27.851Z,9.90
2023-02-20T13:52:43.543Z,11.10
2023-02-20T13:58:04.105Z,13.80
2023-02-20T14:03:23.805Z,17.60
2023-02-20T14:08:27.735Z,15.50
2023-02-20T14:13:40.096Z,16.00
2023-02-20T14:18:44.990Z,14.50
2023-02-20T14:23:50.465Z,13.20
2023-02-20T14:28:57.051Z,13.60
2023-02-20T14:34:10.804Z,15.40
2023-02-20T14:39:39.309Z,12.20
2023-02-20T14:44:44.154Z,14.50
2023-02-20T14:49:48.390Z,14.80
2023-02-20T14:55:02.799Z,12.00
2023-02-20T15:00:31.153Z,12.20
2023-02-20T15:05:35.963Z,15.90
2023-02-20T15:10:43.392Z,23.00
2023-02-20T15:15:51.593Z,10.80
2023-02-20T15:20:56.279Z,23.20
2023-02-20T15:26:37.790Z,9.10
2023-02-20T15:31:41.870Z,14.00
2023-02-20T15:36:46.563Z,13.70
2023-02-20T15:41:51.190Z,16.60
2023-02-20T15:46:55.846Z,20.20
2023-02-20T15:52:09.039Z,24.10
2023-02-20T15:57:18.712Z,32.50
2023-02-20T16:02:25.184Z,22.80
2023-02-20T16:07:29.442Z,24.30
2023-02-20T16:12:34.881Z,24.70
2023-02-20T16:17:41.538Z,25.60
2023-02-20T16:22:47.606Z,29.70
2023-02-20T16:27:54.870Z,74.00
2023-02-20T16:32:59.880Z,41.40
2023-02-20T16:38:05.542Z,39.90
2023-02-20T16:43:15.898Z,32.30
2023-02-20T16:48:22.597Z,33.50
2023-02-20T16:53:32.967Z,35.10
2023-02-20T16:58:39.155Z,28.00
2023-02-20T17:03:44.642Z,26.80
2023-02-20T17:08:50.242Z,24.00
2023-02-20T17:13:56.574Z,28.50
2023-02-20T17:19:01.620Z,32.00
2023-02-20T17:24:06.375Z,21.40
2023-02-20T17:29:11.764Z,25.20
2023-02-20T17:34:17.060Z,24.40
2023-02-20T17:39:24.784Z,20.10
2023-02-20T17:44:31.909Z,16.40
2023-02-20T17:49:40.880Z,18.40
2023-02-20T17:54:56.283Z,18.10
2023-02-20T18:00:01.544Z,15.30
2023-02-20T18:05:07.948Z,19.90
2023-02-20T18:10:13.896Z,13.90
2023-02-20T18:15:21.386Z,15.10
2023-02-20T18:20:28.364Z,13.10
2023-02-20T18:25:40.649Z,13.70
2023-02-20T18:30:47.572Z,11.70
2023-02-20T18:36:07.293Z,11.90
2023-02-20T18:41:14.162Z,10.90
2023-02-20T18:46:35.128Z,15.50
2023-02-20T18:51:46.734Z,23.00
2023-02-20T18:56:54.406Z,31.80
2023-02-20T19:02:00.296Z,19.90
2023-02-20T19:07:08.248Z,25.50
2023-02-20T19:12:15.616Z,31.90
2023-02-20T19:17:21.915Z,39.90
2023-02-20T19:22:32.258Z,43.60
2023-02-20T19:27:40.588Z,44.80
2023-02-20T19:32:45.919Z,46.70
2023-02-20T19:37:54.748Z,40.80
2023-02-20T19:43:01.693Z,44.20
2023-02-20T19:48:08.165Z,40.30
2023-02-20T19:53:13.081Z,39.70
2023-02-20T19:58:22.267Z,39.60
2023-02-20T20:03:28.820Z,35.10
2023-02-20T20:08:35.498Z,37.50
2023-02-20T20:13:43.533Z,36.70
2023-02-20T20:18:54.256Z,33.40
2023-02-20T20:23:59.993Z,36.00
2023-02-20T20:29:06.711Z,32.30
2023-02-20T20:34:12.552Z,28.30
2023-02-20T20:39:19.972Z,28.10
2023-02-20T20:44:27.286Z,28.20
2023-02-20T20:49:34.839Z,28.00
2023-02-20T20:54:39.882Z,25.70
2023-02-20T20:59:48.687Z,29.60
2023-02-20T21:05:08.897Z,26.50
2023-02-20T21:10:16.478Z,28.70
2023-02-20T21:15:24.170Z,23.40
2023-02-20T21:20:33.632Z,23.30
2023-02-20T21:25:42.867Z,23.80
2023-02-20T21:30:48.280Z,36.40
2023-02-20T21:35:52.658Z,40.30
2023-02-20T21:40:57.177Z,33.50
2023-02-20T21:46:02.108Z,30.50
2023-02-20T21:51:06.777Z,26.00
2023-02-20T21:56:11.330Z,23.20
2023-02-20T22:01:15.667Z,25.60
2023-02-20T22:06:20.103Z,23.30
2023-02-20T22:11:43.161Z,25.50
2023-02-20T22:17:06.543Z,29.00
2023-02-20T22:22:29.094Z,24.80
2023-02-20T22:27:51.658Z,27.50
2023-02-20T22:33:14.837Z,21.60
2023-02-20T22:38:37.593Z,17.70
2023-02-20T22:44:00.237Z,22.00
2023-02-20T22:49:22.800Z,21.70
2023-02-20T22:54:50.539Z,15.90
2023-02-20T23:00:22.962Z,18.80
2023-02-20T23:05:46.012Z,15.70
2023-02-20T23:11:08.898Z,13.60
2023-02-20T23:16:32.097Z,19.80
2023-02-20T23:21:54.708Z,14.00
2023-02-20T23:27:17.577Z,14.50
2023-02-20T23:32:40.380Z,13.50
2023-02-20T23:38:03.331Z,15.00
2023-02-20T23:43:27.226Z,16.00
2023-02-20T23:48:50.037Z,13.10
2023-02-20T23:54:12.688Z,16.70
2023-02-20T23:59:35.345Z,14.30
